createdAt,value
2022-11-24T00:00:50.190Z,25.00
2022-11-24T00:03:32.611Z,25.10
2022-11-24T00:06:10.269Z,26.30
2022-11-24T00:08:44.540Z,28.10
2022-11-24T00:11:18.769Z,47.80
2022-11-24T00:13:51.639Z,30.00
2022-11-24T00:16:26.205Z,26.00
2022-11-24T00:19:00.114Z,23.60
2022-11-24T00:21:35.086Z,25.00
2022-11-24T00:24:07.838Z,26.30
2022-11-24T00:26:40.423Z,26.40
2022-11-24T00:29:14.251Z,27.10
2022-11-24T00:31:49.668Z,27.00
2022-11-24T00:34:21.843Z,25.30
2022-11-24T00:36:56.952Z,25.40
2022-11-24T00:39:30.711Z,27.00
2022-11-24T00:42:02.916Z,25.10
2022-11-24T00:44:35.300Z,26.00
2022-11-24T00:47:08.012Z,24.30
2022-11-24T00:49:42.988Z,24.40
2022-11-24T00:52:15.211Z,25.80
2022-11-24T00:54:47.361Z,25.90
2022-11-24T00:57:19.776Z,25.90
2022-11-24T00:59:52.133Z,25.00
2022-11-24T01:02:24.630Z,26.30
2022-11-24T01:04:57.464Z,26.10
2022-11-24T01:07:29.888Z,28.80
2022-11-24T01:10:02.087Z,43.60
2022-11-24T01:12:35.951Z,67.30
2022-11-24T01:15:09.852Z,75.40
2022-11-24T01:17:42.063Z,33.50
2022-11-24T01:20:14.784Z,27.90
2022-11-24T01:22:48.848Z,27.90
2022-11-24T01:25:21.096Z,28.30
2022-11-24T01:27:53.361Z,25.10
2022-11-24T01:30:25.514Z,29.40
2022-11-24T01:32:57.799Z,34.90
2022-11-24T01:35:30.000Z,50.50
2022-11-24T01:38:03.817Z,35.50
2022-11-24T01:40:35.874Z,28.10
2022-11-24T01:43:19.834Z,28.80
2022-11-24T01:45:52.226Z,34.00
2022-11-24T01:48:28.652Z,35.70
2022-11-24T01:51:09.628Z,31.60
2022-11-24T01:53:45.365Z,25.70
2022-11-24T01:56:17.843Z,28.10
2022-11-24T01:58:51.642Z,25.00
2022-11-24T02:01:24.251Z,24.30
2022-11-24T02:03:57.207Z,27.70
2022-11-24T02:06:31.489Z,24.30
2022-11-24T02:09:09.299Z,24.70
2022-11-24T02:11:42.929Z,23.70
2022-11-24T02:14:18.966Z,23.70
2022-11-24T02:16:54.189Z,28.30
2022-11-24T02:19:39.757Z,30.70
2022-11-24T02:22:20.476Z,31.20
2022-11-24T02:24:57.184Z,40.20
2022-11-24T02:27:29.341Z,31.40
2022-11-24T02:30:01.505Z,28.80
2022-11-24T02:32:34.994Z,31.10
2022-11-24T02:35:09.360Z,30.30
2022-11-24T02:37:41.617Z,45.60
2022-11-24T02:40:17.693Z,33.20
2022-11-24T02:42:50.055Z,29.00
2022-11-24T02:45:24.097Z,28.70
2022-11-24T02:47:56.296Z,31.80
2022-11-24T02:50:28.805Z,29.30
2022-11-24T02:53:01.555Z,39.80
2022-11-24T02:55:37.099Z,31.80
2022-11-24T02:58:09.288Z,26.40
2022-11-24T03:00:41.485Z,28.70
2022-11-24T03:03:14.212Z,30.50
2022-11-24T03:05:46.374Z,33.30
2022-11-24T03:08:19.198Z,34.10
2022-11-24T03:10:51.587Z,33.90
2022-11-24T03:13:23.782Z,33.20
2022-11-24T03:15:56.130Z,28.60
2022-11-24T03:18:28.351Z,30.70
2022-11-24T03:21:03.172Z,28.20
2022-11-24T03:23:38.572Z,29.90
2022-11-24T03:26:12.379Z,29.50
2022-11-24T03:28:44.850Z,26.00
2022-11-24T03:31:17.525Z,27.80
2022-11-24T03:33:49.759Z,31.50
2022-11-24T03:36:21.882Z,28.60
2022-11-24T03:38:54.064Z,28.60
2022-11-24T03:41:26.177Z,30.20
2022-11-24T03:43:58.357Z,32.90
2022-11-24T03:46:30.579Z,29.70
2022-11-24T03:49:02.935Z,27.70
2022-11-24T03:51:37.213Z,27.10
2022-11-24T03:54:10.086Z,27.50
2022-11-24T03:56:43.182Z,29.00
2022-11-24T03:59:15.443Z,25.30
2022-11-24T04:01:47.933Z,27.30
2022-11-24T04:04:20.315Z,28.20
2022-11-24T04:06:52.518Z,26.50
2022-11-24T04:09:25.420Z,27.50
2022-11-24T04:12:15.216Z,27.10
2022-11-24T04:14:48.454Z,28.60
2022-11-24T04:17:20.812Z,27.50
2022-11-24T04:19:53.071Z,25.90
2022-11-24T04:22:25.249Z,29.80
2022-11-24T04:24:57.490Z,30.80
2022-11-24T04:27:30.109Z,28.20
2022-11-24T04:30:02.359Z,30.10
2022-11-24T04:32:34.532Z,29.00
2022-11-24T04:35:07.466Z,30.40
2022-11-24T04:37:39.677Z,28.60
2022-11-24T04:40:13.330Z,29.70
2022-11-24T04:42:45.526Z,31.70
2022-11-24T04:45:19.854Z,30.80
2022-11-24T04:47:52.088Z,31.40
2022-11-24T04:50:24.325Z,29.20
2022-11-24T04:52:56.500Z,30.20
2022-11-24T04:55:28.738Z,29.40
2022-11-24T04:58:01.034Z,65.90
2022-11-24T05:00:33.135Z,55.70
2022-11-24T05:03:05.820Z,33.90
2022-11-24T05:05:38.040Z,35.00
2022-11-24T05:08:11.599Z,42.30
2022-11-24T05:10:43.790Z,33.90
2022-11-24T05:13:16.397Z,31.90
2022-11-24T05:15:48.761Z,34.40
2022-11-24T05:18:21.081Z,34.00
2022-11-24T05:20:53.359Z,31.20
2022-11-24T05:23:25.601Z,29.90
2022-11-24T05:26:02.489Z,32.50
2022-11-24T05:28:35.057Z,36.40
2022-11-24T05:31:07.348Z,40.20
2022-11-24T05:33:39.957Z,37.70
2022-11-24T05:36:33.282Z,34.30
2022-11-24T05:39:06.967Z,35.40
2022-11-24T05:41:39.059Z,37.00
2022-11-24T05:44:11.212Z,36.20
2022-11-24T05:46:43.440Z,38.20
2022-11-24T05:49:15.731Z,38.70
2022-11-24T05:51:47.968Z,36.70
2022-11-24T05:54:20.620Z,41.00
2022-11-24T05:56:53.204Z,42.30
2022-11-24T05:59:25.521Z,38.10
2022-11-24T06:01:57.865Z,36.80
2022-11-24T06:04:30.390Z,35.70
2022-11-24T06:07:05.347Z,34.60
2022-11-24T06:09:40.287Z,32.80
2022-11-24T06:12:13.551Z,35.90
2022-11-24T06:14:45.695Z,39.20
2022-11-24T06:17:21.062Z,34.50
2022-11-24T06:19:56.589Z,38.80
2022-11-24T06:22:29.603Z,31.60
2022-11-24T06:25:02.276Z,33.10
2022-11-24T06:27:37.342Z,34.20
2022-11-24T06:30:14.594Z,32.90
2022-11-24T06:32:49.750Z,37.70
2022-11-24T06:35:29.271Z,41.70
2022-11-24T06:38:01.660Z,42.60
2022-11-24T06:40:34.056Z,33.90
2022-11-24T06:43:06.230Z,43.20
2022-11-24T06:45:38.688Z,41.20
2022-11-24T06:48:13.394Z,41.50
2022-11-24T06:50:45.635Z,36.70
2022-11-24T06:53:18.097Z,35.00
2022-11-24T06:55:50.810Z,35.30
2022-11-24T06:58:23.033Z,38.30
2022-11-24T07:00:55.487Z,38.30
2022-11-24T07:03:28.261Z,40.10
2022-11-24T07:06:01.389Z,38.50
2022-11-24T07:08:33.779Z,39.60
2022-11-24T07:11:09.071Z,38.00
2022-11-24T07:13:41.402Z,36.70
2022-11-24T07:16:18.978Z,43.40
2022-11-24T07:18:55.358Z,33.80
2022-11-24T07:21:29.249Z,42.20
2022-11-24T07:24:01.461Z,34.20
2022-11-24T07:26:37.321Z,32.20
2022-11-24T07:29:12.777Z,30.90
2022-11-24T07:31:46.030Z,32.90
2022-11-24T07:34:18.341Z,39.80
2022-11-24T07:36:50.454Z,46.10
2022-11-24T07:39:22.636Z,55.20
2022-11-24T07:41:54.767Z,58.10
2022-11-24T07:44:26.903Z,59.40
2022-11-24T07:46:59.067Z,48.30
2022-11-24T07:49:31.250Z,64.00
2022-11-24T07:52:04.540Z,54.00
2022-11-24T07:54:36.941Z,44.70
2022-11-24T07:57:09.214Z,41.90
2022-11-24T07:59:41.354Z,46.90
2022-11-24T08:02:14.885Z,44.10
2022-11-24T08:04:47.121Z,39.60
2022-11-24T08:07:19.306Z,34.80
2022-11-24T08:09:52.286Z,33.50
2022-11-24T08:12:24.479Z,34.40
2022-11-24T08:14:56.727Z,36.60
2022-11-24T08:17:29.320Z,37.10
2022-11-24T08:20:03.762Z,36.80
2022-11-24T08:22:35.897Z,38.00
2022-11-24T08:25:09.712Z,38.40
2022-11-24T08:27:44.904Z,35.90
2022-11-24T08:30:17.922Z,41.90
2022-11-24T08:32:50.155Z,34.60
2022-11-24T08:35:22.382Z,35.20
2022-11-24T08:37:54.531Z,33.40
2022-11-24T08:40:26.669Z,32.90
2022-11-24T08:43:01.460Z,32.60
2022-11-24T08:45:38.253Z,28.80
2022-11-24T08:48:13.823Z,28.70
2022-11-24T08:50:46.198Z,48.90
2022-11-24T08:53:19.317Z,27.80
2022-11-24T08:55:51.641Z,34.60
2022-11-24T08:58:26.846Z,25.70
2022-11-24T09:01:06.836Z,26.90
2022-11-24T09:03:42.301Z,27.80
2022-11-24T09:06:20.217Z,26.80
2022-11-24T09:08:52.467Z,28.90
2022-11-24T09:11:27.018Z,23.40
2022-11-24T09:13:59.487Z,24.50
2022-11-24T09:16:32.126Z,26.50
2022-11-24T09:19:05.811Z,24.90
2022-11-24T09:21:39.148Z,29.40
2022-11-24T09:24:12.800Z,31.30
2022-11-24T09:26:47.776Z,32.30
2022-11-24T09:29:20.322Z,30.10
2022-11-24T09:31:52.722Z,40.60
2022-11-24T09:34:24.897Z,38.70
2022-11-24T09:36:58.855Z,31.60
2022-11-24T09:59:56.905Z,35.10
2022-11-24T10:06:59.891Z,23.50
2022-11-24T10:10:56.084Z,24.70
2022-11-24T10:31:59.819Z,31.30
2022-11-24T10:44:13.289Z,31.40
2022-11-24T10:51:56.004Z,23.90
2022-11-24T11:08:32.322Z,27.20
2022-11-24T11:46:32.737Z,23.30
2022-11-24T11:49:14.872Z,24.20
2022-11-24T11:52:02.277Z,25.00
2022-11-24T11:54:58.080Z,28.20
2022-11-24T11:57:38.456Z,25.60
2022-11-24T12:00:16.855Z,32.20
2022-11-24T12:03:13.479Z,31.00
2022-11-24T12:05:56.297Z,30.30
2022-11-24T12:09:11.720Z,28.80
2022-11-24T12:11:40.669Z,26.20
2022-11-24T12:14:25.858Z,27.90
2022-11-24T12:17:09.304Z,29.80
2022-11-24T12:19:53.140Z,27.60
2022-11-24T12:22:36.703Z,29.70
2022-11-24T12:29:24.217Z,28.70
2022-11-24T12:32:08.788Z,33.40
2022-11-24T12:34:53.365Z,27.50
2022-11-24T12:37:42.050Z,33.40
2022-11-24T12:40:24.597Z,31.70
2022-11-24T12:43:09.093Z,33.70
2022-11-24T12:45:51.256Z,31.00
2022-11-24T13:02:15.451Z,28.30
2022-11-24T13:09:44.570Z,27.20
2022-11-24T13:22:03.796Z,30.40
2022-11-24T13:38:14.558Z,35.00
2022-11-24T13:41:06.240Z,30.60
2022-11-24T13:45:18.356Z,31.70
2022-11-24T14:05:59.288Z,28.00
2022-11-24T14:17:28.162Z,42.60
2022-11-24T14:37:55.627Z,33.50
2022-11-24T14:50:11.627Z,43.80
2022-11-24T15:17:57.336Z,35.50
2022-11-24T15:28:38.675Z,34.90
2022-11-24T15:31:52.799Z,35.60
2022-11-24T15:34:34.213Z,36.00
2022-11-24T15:37:55.806Z,39.80
2022-11-24T15:40:35.363Z,41.50
2022-11-24T15:47:36.903Z,38.80
2022-11-24T16:03:48.687Z,51.60
2022-11-24T16:11:40.061Z,37.50
2022-11-24T16:14:12.313Z,37.40
2022-11-24T16:16:53.262Z,38.60
2022-11-24T16:21:17.624Z,43.20
2022-11-24T16:28:24.915Z,41.20
2022-11-24T16:30:57.110Z,52.90
2022-11-24T16:33:38.691Z,51.30
2022-11-24T16:36:59.495Z,47.00
2022-11-24T16:39:37.923Z,49.50
2022-11-24T16:42:10.302Z,51.50
2022-11-24T16:49:07.640Z,57.90
2022-11-24T16:51:40.053Z,56.70
2022-11-24T16:54:18.932Z,60.30
2022-11-24T16:56:51.169Z,53.70
2022-11-24T17:09:10.351Z,44.60
2022-11-24T17:11:49.068Z,48.30
2022-11-24T17:14:21.405Z,52.60
2022-11-24T17:17:00.400Z,65.30
2022-11-24T17:19:33.202Z,63.90
2022-11-24T17:22:12.957Z,68.50
2022-11-24T17:29:35.998Z,45.60
2022-11-24T17:37:19.033Z,41.30
2022-11-24T17:40:20.296Z,45.00
2022-11-24T17:43:40.048Z,44.00
2022-11-24T17:46:13.419Z,44.40
2022-11-24T17:48:52.218Z,46.30
2022-11-24T17:51:26.111Z,44.40
2022-11-24T17:54:31.200Z,44.50
2022-11-24T17:57:46.045Z,44.20
2022-11-24T18:00:20.203Z,46.40
2022-11-24T18:03:08.249Z,46.60
2022-11-24T18:10:15.182Z,56.10
2022-11-24T18:12:47.784Z,66.60
2022-11-24T18:19:30.130Z,59.70
2022-11-24T18:22:03.422Z,73.40
2022-11-24T18:29:08.180Z,180.90
2022-11-24T18:31:41.013Z,108.20
2022-11-24T18:34:20.078Z,87.10
2022-11-24T18:36:52.774Z,71.40
2022-11-24T18:39:32.062Z,78.50
2022-11-24T18:42:04.781Z,116.10
2022-11-24T18:44:45.417Z,55.10
2022-11-24T18:48:09.497Z,43.40
2022-11-24T18:55:53.828Z,67.10
2022-11-24T19:02:21.206Z,60.70
2022-11-24T19:04:53.983Z,53.00
2022-11-24T19:07:34.358Z,53.10
2022-11-24T19:10:08.188Z,57.60
2022-11-24T19:12:47.147Z,54.80
2022-11-24T19:15:19.542Z,55.20
2022-11-24T19:22:47.828Z,55.80
2022-11-24T19:25:20.278Z,49.60
2022-11-24T19:27:59.108Z,52.00
2022-11-24T19:30:31.398Z,54.30
2022-11-24T19:33:11.660Z,48.30
2022-11-24T19:40:37.061Z,43.70
2022-11-24T19:43:17.697Z,41.50
2022-11-24T19:48:27.234Z,38.90
2022-11-24T19:54:59.223Z,39.40
2022-11-24T20:06:37.551Z,47.10
2022-11-24T20:13:36.926Z,38.50
2022-11-24T20:24:48.652Z,39.90
2022-11-24T20:36:54.054Z,38.60
2022-11-24T20:39:28.925Z,41.60
2022-11-24T20:43:12.055Z,38.70
2022-11-24T20:50:51.445Z,40.70
2022-11-24T20:54:14.104Z,39.00
2022-11-24T20:56:47.518Z,44.90
2022-11-24T20:59:22.650Z,40.30
2022-11-24T21:01:57.171Z,42.00
2022-11-24T21:04:30.006Z,42.10
2022-11-24T21:07:03.793Z,39.50
2022-11-24T21:09:36.021Z,42.50
2022-11-24T21:12:09.070Z,47.00
2022-11-24T21:14:44.369Z,41.60
2022-11-24T21:17:17.459Z,41.50
2022-11-24T21:19:50.427Z,43.10
2022-11-24T21:22:22.561Z,44.90
2022-11-24T21:24:54.696Z,45.50
2022-11-24T21:27:28.781Z,45.40
2022-11-24T21:30:01.305Z,44.20
2022-11-24T21:32:33.523Z,48.00
2022-11-24T21:35:06.809Z,50.80
2022-11-24T21:37:38.936Z,49.50
2022-11-24T21:40:14.486Z,60.90
2022-11-24T21:42:46.892Z,48.90
2022-11-24T21:45:19.184Z,50.20
2022-11-24T21:47:51.390Z,49.70
2022-11-24T21:50:24.251Z,52.40
2022-11-24T21:53:00.641Z,56.10
2022-11-24T21:55:35.607Z,54.50
2022-11-24T21:58:09.791Z,62.30
2022-11-24T22:00:42.206Z,56.50
2022-11-24T22:03:14.442Z,58.00
2022-11-24T22:05:55.811Z,60.90
2022-11-24T22:08:29.951Z,55.70
2022-11-24T22:11:05.274Z,56.90
2022-11-24T22:13:39.437Z,56.40
2022-11-24T22:16:17.575Z,51.20
2022-11-24T22:18:51.796Z,54.40
2022-11-24T22:21:30.031Z,53.10
2022-11-24T22:24:02.419Z,57.80
2022-11-24T22:26:34.622Z,55.70
2022-11-24T22:29:07.780Z,58.90
2022-11-24T22:31:40.165Z,57.90
2022-11-24T22:34:12.421Z,52.60
2022-11-24T22:36:44.839Z,57.60
2022-11-24T22:39:17.080Z,56.40
2022-11-24T22:41:49.419Z,54.00
2022-11-24T22:44:21.596Z,54.00
2022-11-24T22:46:53.823Z,54.40
2022-11-24T22:49:26.719Z,57.10
2022-11-24T22:51:58.973Z,52.00
2022-11-24T22:54:31.356Z,57.70
2022-11-24T22:57:03.573Z,54.90
2022-11-24T22:59:35.748Z,80.10
2022-11-24T23:02:08.005Z,56.80
2022-11-24T23:04:40.091Z,53.30
2022-11-24T23:07:12.289Z,52.70
2022-11-24T23:09:47.642Z,52.10
2022-11-24T23:12:20.292Z,62.80
2022-11-24T23:14:52.494Z,51.70
2022-11-24T23:17:24.734Z,47.90
2022-11-24T23:19:56.853Z,50.10
2022-11-24T23:22:29.067Z,64.40
2022-11-24T23:25:01.115Z,48.00
2022-11-24T23:27:33.302Z,48.10
2022-11-24T23:30:05.916Z,56.40
2022-11-24T23:32:38.030Z,50.10
2022-11-24T23:35:13.992Z,47.60
2022-11-24T23:38:06.656Z,49.60
2022-11-24T23:40:38.853Z,45.70
2022-11-24T23:43:11.246Z,39.20
2022-11-24T23:45:43.426Z,43.00
2022-11-24T23:48:15.824Z,42.40
2022-11-24T23:50:48.057Z,41.10
2022-11-24T23:53:20.657Z,41.70
2022-11-24T23:55:56.783Z,38.00
2022-11-24T23:58:29.104Z,40.40
